sensor_id;sensor_type;location;lat;lon;timestamp;P1;durP1;ratioP1;P2;durP2;ratioP2
7205;SDS011;3644;53.480;10.004;2023-11-18T00:00:18;6.53;;;4.50;;
7205;SDS011;3644;53.480;10.004;2023-11-18T00:02:45;7.07;;;4.80;;
7205;SDS011;3644;53.480;10.004;2023-11-18T00:05:11;5.53;;;4.60;;
7205;SDS011;3644;53.480;10.004;2023-11-18T00:07:39;7.80;;;4.30;;
7205;SDS011;3644;53.480;10.004;2023-11-18T00:10:05;5.60;;;5.10;;
7205;SDS011;3644;53.480;10.004;2023-11-18T00:12:31;4.80;;;3.90;;
7205;SDS011;3644;53.480;10.004;2023-11-18T00:14:59;9.40;;;5.00;;
7205;SDS011;3644;53.480;10.004;2023-11-18T00:17:28;7.00;;;5.13;;
7205;SDS011;3644;53.480;10.004;2023-11-18T00:19:53;11.17;;;5.03;;
7205;SDS011;3644;53.480;10.004;2023-11-18T00:22:19;7.37;;;5.43;;
7205;SDS011;3644;53.480;10.004;2023-11-18T00:24:44;8.70;;;4.77;;
7205;SDS011;3644;53.480;10.004;2023-11-18T00:27:10;9.00;;;4.83;;
7205;SDS011;3644;53.480;10.004;2023-11-18T00:29:35;7.87;;;4.77;;
7205;SDS011;3644;53.480;10.004;2023-11-18T00:32:02;8.07;;;5.00;;
7205;SDS011;3644;53.480;10.004;2023-11-18T00:34:28;8.83;;;4.83;;
7205;SDS011;3644;53.480;10.004;2023-11-18T00:36:54;5.73;;;4.87;;
7205;SDS011;3644;53.480;10.004;2023-11-18T00:39:23;6.07;;;4.07;;
7205;SDS011;3644;53.480;10.004;2023-11-18T00:41:49;6.30;;;4.83;;
7205;SDS011;3644;53.480;10.004;2023-11-18T00:44:14;8.87;;;5.10;;
7205;SDS011;3644;53.480;10.004;2023-11-18T00:46:40;5.10;;;4.40;;
7205;SDS011;3644;53.480;10.004;2023-11-18T00:49:06;5.60;;;4.20;;
7205;SDS011;3644;53.480;10.004;2023-11-18T00:51:32;5.93;;;5.30;;
7205;SDS011;3644;53.480;10.004;2023-11-18T00:53:57;5.80;;;4.33;;
7205;SDS011;3644;53.480;10.004;2023-11-18T00:56:25;6.33;;;4.63;;
7205;SDS011;3644;53.480;10.004;2023-11-18T00:58:51;4.60;;;4.10;;
7205;SDS011;3644;53.480;10.004;2023-11-18T01:01:17;5.50;;;4.30;;
7205;SDS011;3644;53.480;10.004;2023-11-18T01:03:46;4.93;;;4.00;;
7205;SDS011;3644;53.480;10.004;2023-11-18T01:06:12;6.03;;;4.43;;
7205;SDS011;3644;53.480;10.004;2023-11-18T01:08:40;7.20;;;4.20;;
7205;SDS011;3644;53.480;10.004;2023-11-18T01:11:08;9.70;;;5.13;;
7205;SDS011;3644;53.480;10.004;2023-11-18T01:13:34;4.50;;;4.10;;
7205;SDS011;3644;53.480;10.004;2023-11-18T01:16:00;25.17;;;5.10;;
7205;SDS011;3644;53.480;10.004;2023-11-18T01:18:26;6.47;;;4.20;;
7205;SDS011;3644;53.480;10.004;2023-11-18T01:20:52;6.13;;;4.23;;
7205;SDS011;3644;53.480;10.004;2023-11-18T01:23:18;6.77;;;4.60;;
7205;SDS011;3644;53.480;10.004;2023-11-18T01:25:43;6.70;;;4.37;;
7205;SDS011;3644;53.480;10.004;2023-11-18T01:28:09;5.00;;;4.37;;
7205;SDS011;3644;53.480;10.004;2023-11-18T01:30:34;5.33;;;4.30;;
7205;SDS011;3644;53.480;10.004;2023-11-18T01:33:01;7.43;;;5.03;;
7205;SDS011;3644;53.480;10.004;2023-11-18T01:35:27;7.27;;;4.63;;
7205;SDS011;3644;53.480;10.004;2023-11-18T01:37:53;5.87;;;4.70;;
7205;SDS011;3644;53.480;10.004;2023-11-18T01:40:19;6.23;;;4.73;;
7205;SDS011;3644;53.480;10.004;2023-11-18T01:42:45;9.50;;;5.07;;
7205;SDS011;3644;53.480;10.004;2023-11-18T01:45:12;5.80;;;4.27;;
7205;SDS011;3644;53.480;10.004;2023-11-18T01:47:39;8.23;;;4.60;;
7205;SDS011;3644;53.480;10.004;2023-11-18T01:50:05;5.93;;;4.67;;
7205;SDS011;3644;53.480;10.004;2023-11-18T01:52:33;6.90;;;4.40;;
7205;SDS011;3644;53.480;10.004;2023-11-18T01:55:00;6.27;;;4.17;;
7205;SDS011;3644;53.480;10.004;2023-11-18T01:57:28;7.83;;;5.07;;
7205;SDS011;3644;53.480;10.004;2023-11-18T01:59:54;6.47;;;5.00;;
7205;SDS011;3644;53.480;10.004;2023-11-18T02:02:20;7.70;;;5.47;;
7205;SDS011;3644;53.480;10.004;2023-11-18T02:04:46;7.83;;;5.37;;
7205;SDS011;3644;53.480;10.004;2023-11-18T02:07:12;15.17;;;6.67;;
7205;SDS011;3644;53.480;10.004;2023-11-18T02:09:40;11.90;;;5.27;;
7205;SDS011;3644;53.480;10.004;2023-11-18T02:14:48;9.57;;;5.70;;
7205;SDS011;3644;53.480;10.004;2023-11-18T02:17:16;10.10;;;5.77;;
7205;SDS011;3644;53.480;10.004;2023-11-18T02:19:44;10.30;;;6.30;;
7205;SDS011;3644;53.480;10.004;2023-11-18T02:22:10;6.40;;;5.13;;
7205;SDS011;3644;53.480;10.004;2023-11-18T02:24:36;6.73;;;4.93;;
7205;SDS011;3644;53.480;10.004;2023-11-18T02:27:02;7.83;;;5.27;;
7205;SDS011;3644;53.480;10.004;2023-11-18T02:29:37;7.67;;;5.07;;
7205;SDS011;3644;53.480;10.004;2023-11-18T02:35:15;18.00;;;5.40;;
7205;SDS011;3644;53.480;10.004;2023-11-18T02:37:49;5.40;;;4.93;;
7205;SDS011;3644;53.480;10.004;2023-11-18T02:40:28;6.80;;;4.90;;
7205;SDS011;3644;53.480;10.004;2023-11-18T02:42:58;5.97;;;4.60;;
7205;SDS011;3644;53.480;10.004;2023-11-18T02:45:25;7.50;;;5.40;;
7205;SDS011;3644;53.480;10.004;2023-11-18T02:47:52;9.93;;;5.50;;
7205;SDS011;3644;53.480;10.004;2023-11-18T02:50:22;10.40;;;5.50;;
7205;SDS011;3644;53.480;10.004;2023-11-18T02:52:49;6.70;;;5.03;;
7205;SDS011;3644;53.480;10.004;2023-11-18T02:55:14;7.67;;;5.27;;
7205;SDS011;3644;53.480;10.004;2023-11-18T02:57:40;9.07;;;5.43;;
7205;SDS011;3644;53.480;10.004;2023-11-18T03:00:06;12.63;;;7.47;;
7205;SDS011;3644;53.480;10.004;2023-11-18T03:02:43;7.40;;;5.77;;
7205;SDS011;3644;53.480;10.004;2023-11-18T03:05:08;15.83;;;5.70;;
7205;SDS011;3644;53.480;10.004;2023-11-18T03:07:37;8.83;;;6.33;;
7205;SDS011;3644;53.480;10.004;2023-11-18T03:10:03;8.37;;;5.53;;
7205;SDS011;3644;53.480;10.004;2023-11-18T03:12:34;9.23;;;5.23;;
7205;SDS011;3644;53.480;10.004;2023-11-18T03:15:00;9.27;;;5.80;;
7205;SDS011;3644;53.480;10.004;2023-11-18T03:17:26;8.57;;;5.93;;
7205;SDS011;3644;53.480;10.004;2023-11-18T03:19:51;7.60;;;5.27;;
7205;SDS011;3644;53.480;10.004;2023-11-18T03:22:17;7.00;;;5.70;;
7205;SDS011;3644;53.480;10.004;2023-11-18T03:24:42;6.63;;;5.30;;
7205;SDS011;3644;53.480;10.004;2023-11-18T03:27:08;7.83;;;5.10;;
7205;SDS011;3644;53.480;10.004;2023-11-18T03:29:33;9.23;;;5.90;;
7205;SDS011;3644;53.480;10.004;2023-11-18T03:31:59;6.50;;;4.73;;
7205;SDS011;3644;53.480;10.004;2023-11-18T03:34:24;13.90;;;5.67;;
7205;SDS011;3644;53.480;10.004;2023-11-18T03:36:50;7.10;;;5.60;;
7205;SDS011;3644;53.480;10.004;2023-11-18T03:39:17;8.47;;;5.13;;
7205;SDS011;3644;53.480;10.004;2023-11-18T03:41:42;13.57;;;5.10;;
7205;SDS011;3644;53.480;10.004;2023-11-18T03:44:09;7.87;;;5.00;;
7205;SDS011;3644;53.480;10.004;2023-11-18T03:46:36;10.33;;;5.50;;
7205;SDS011;3644;53.480;10.004;2023-11-18T03:49:02;9.30;;;5.43;;
7205;SDS011;3644;53.480;10.004;2023-11-18T03:51:28;7.30;;;5.57;;
7205;SDS011;3644;53.480;10.004;2023-11-18T03:53:54;7.10;;;5.90;;
7205;SDS011;3644;53.480;10.004;2023-11-18T03:56:19;14.90;;;5.70;;
7205;SDS011;3644;53.480;10.004;2023-11-18T03:58:45;7.90;;;6.30;;
7205;SDS011;3644;53.480;10.004;2023-11-18T04:01:23;8.33;;;5.30;;
7205;SDS011;3644;53.480;10.004;2023-11-18T04:03:51;8.67;;;6.20;;
7205;SDS011;3644;53.480;10.004;2023-11-18T04:06:17;11.87;;;6.50;;
7205;SDS011;3644;53.480;10.004;2023-11-18T04:08:46;6.87;;;5.00;;
7205;SDS011;3644;53.480;10.004;2023-11-18T04:11:11;7.70;;;5.40;;
7205;SDS011;3644;53.480;10.004;2023-11-18T04:13:39;8.33;;;5.47;;
7205;SDS011;3644;53.480;10.004;2023-11-18T04:16:09;16.73;;;6.03;;
7205;SDS011;3644;53.480;10.004;2023-11-18T04:18:37;9.03;;;5.40;;
7205;SDS011;3644;53.480;10.004;2023-11-18T04:21:04;7.40;;;5.20;;
7205;SDS011;3644;53.480;10.004;2023-11-18T04:23:31;12.07;;;6.40;;
7205;SDS011;3644;53.480;10.004;2023-11-18T04:25:57;9.10;;;5.23;;
7205;SDS011;3644;53.480;10.004;2023-11-18T04:28:23;8.53;;;5.87;;
7205;SDS011;3644;53.480;10.004;2023-11-18T04:30:49;8.43;;;5.20;;
7205;SDS011;3644;53.480;10.004;2023-11-18T04:33:14;7.07;;;5.03;;
7205;SDS011;3644;53.480;10.004;2023-11-18T04:35:40;7.33;;;4.53;;
7205;SDS011;3644;53.480;10.004;2023-11-18T04:38:05;5.53;;;4.93;;
7205;SDS011;3644;53.480;10.004;2023-11-18T04:40:31;7.33;;;5.30;;
7205;SDS011;3644;53.480;10.004;2023-11-18T04:42:56;7.73;;;4.53;;
7205;SDS011;3644;53.480;10.004;2023-11-18T04:45:22;7.30;;;5.03;;
7205;SDS011;3644;53.480;10.004;2023-11-18T04:47:47;7.47;;;4.97;;
7205;SDS011;3644;53.480;10.004;2023-11-18T04:50:14;10.80;;;5.80;;
7205;SDS011;3644;53.480;10.004;2023-11-18T04:52:40;7.30;;;4.70;;
7205;SDS011;3644;53.480;10.004;2023-11-18T04:55:06;10.93;;;6.03;;
7205;SDS011;3644;53.480;10.004;2023-11-18T04:57:34;11.07;;;6.07;;
7205;SDS011;3644;53.480;10.004;2023-11-18T05:00:00;7.03;;;5.73;;
7205;SDS011;3644;53.480;10.004;2023-11-18T05:02:35;7.90;;;4.77;;
7205;SDS011;3644;53.480;10.004;2023-11-18T05:05:00;6.93;;;4.77;;
7205;SDS011;3644;53.480;10.004;2023-11-18T05:07:26;8.70;;;5.80;;
7205;SDS011;3644;53.480;10.004;2023-11-18T05:09:53;9.83;;;6.17;;
7205;SDS011;3644;53.480;10.004;2023-11-18T05:12:19;9.43;;;6.77;;
7205;SDS011;3644;53.480;10.004;2023-11-18T05:14:45;7.00;;;5.07;;
7205;SDS011;3644;53.480;10.004;2023-11-18T05:17:10;5.90;;;5.00;;
7205;SDS011;3644;53.480;10.004;2023-11-18T05:19:35;8.80;;;5.90;;
7205;SDS011;3644;53.480;10.004;2023-11-18T05:22:01;8.13;;;5.43;;
7205;SDS011;3644;53.480;10.004;2023-11-18T05:24:27;9.10;;;5.83;;
7205;SDS011;3644;53.480;10.004;2023-11-18T05:26:52;7.77;;;5.67;;
7205;SDS011;3644;53.480;10.004;2023-11-18T05:29:18;7.67;;;4.90;;
7205;SDS011;3644;53.480;10.004;2023-11-18T05:31:43;7.10;;;5.93;;
7205;SDS011;3644;53.480;10.004;2023-11-18T05:34:12;8.00;;;5.97;;
7205;SDS011;3644;53.480;10.004;2023-11-18T05:36:37;7.40;;;6.00;;
7205;SDS011;3644;53.480;10.004;2023-11-18T05:39:05;6.90;;;4.90;;
7205;SDS011;3644;53.480;10.004;2023-11-18T05:41:32;8.70;;;5.70;;
7205;SDS011;3644;53.480;10.004;2023-11-18T05:44:00;8.33;;;6.03;;
7205;SDS011;3644;53.480;10.004;2023-11-18T05:46:25;14.97;;;5.83;;
7205;SDS011;3644;53.480;10.004;2023-11-18T05:48:54;6.77;;;5.60;;
7205;SDS011;3644;53.480;10.004;2023-11-18T05:51:25;8.10;;;5.30;;
7205;SDS011;3644;53.480;10.004;2023-11-18T05:53:51;10.17;;;5.27;;
7205;SDS011;3644;53.480;10.004;2023-11-18T05:56:17;8.33;;;5.23;;
7205;SDS011;3644;53.480;10.004;2023-11-18T05:58:44;10.30;;;6.10;;
7205;SDS011;3644;53.480;10.004;2023-11-18T06:01:10;8.10;;;5.47;;
7205;SDS011;3644;53.480;10.004;2023-11-18T06:03:37;6.53;;;5.10;;
7205;SDS011;3644;53.480;10.004;2023-11-18T06:06:10;9.60;;;6.30;;
7205;SDS011;3644;53.480;10.004;2023-11-18T06:08:38;12.50;;;6.80;;
7205;SDS011;3644;53.480;10.004;2023-11-18T06:11:06;11.40;;;6.30;;
7205;SDS011;3644;53.480;10.004;2023-11-18T06:13:41;7.70;;;5.57;;
7205;SDS011;3644;53.480;10.004;2023-11-18T06:16:14;7.50;;;5.80;;
7205;SDS011;3644;53.480;10.004;2023-11-18T06:18:44;7.90;;;5.10;;
7205;SDS011;3644;53.480;10.004;2023-11-18T06:21:10;9.47;;;5.90;;
7205;SDS011;3644;53.480;10.004;2023-11-18T06:23:37;12.90;;;6.40;;
7205;SDS011;3644;53.480;10.004;2023-11-18T06:26:02;7.37;;;5.80;;
7205;SDS011;3644;53.480;10.004;2023-11-18T06:28:29;8.77;;;6.53;;
7205;SDS011;3644;53.480;10.004;2023-11-18T06:30:54;10.00;;;5.80;;
7205;SDS011;3644;53.480;10.004;2023-11-18T06:33:20;8.77;;;5.90;;
7205;SDS011;3644;53.480;10.004;2023-11-18T06:35:48;16.70;;;6.47;;
7205;SDS011;3644;53.480;10.004;2023-11-18T06:38:14;6.47;;;5.17;;
7205;SDS011;3644;53.480;10.004;2023-11-18T06:40:43;8.53;;;5.50;;
7205;SDS011;3644;53.480;10.004;2023-11-18T06:43:10;11.83;;;6.10;;
7205;SDS011;3644;53.480;10.004;2023-11-18T06:45:36;8.23;;;5.60;;
7205;SDS011;3644;53.480;10.004;2023-11-18T06:48:03;9.13;;;7.00;;
7205;SDS011;3644;53.480;10.004;2023-11-18T06:50:30;11.50;;;6.70;;
7205;SDS011;3644;53.480;10.004;2023-11-18T06:52:57;8.27;;;5.33;;
7205;SDS011;3644;53.480;10.004;2023-11-18T06:55:23;7.57;;;5.23;;
7205;SDS011;3644;53.480;10.004;2023-11-18T06:57:51;12.43;;;5.10;;
7205;SDS011;3644;53.480;10.004;2023-11-18T07:00:17;8.23;;;5.70;;
7205;SDS011;3644;53.480;10.004;2023-11-18T07:02:42;9.60;;;6.33;;
7205;SDS011;3644;53.480;10.004;2023-11-18T07:05:08;10.13;;;5.30;;
7205;SDS011;3644;53.480;10.004;2023-11-18T07:07:34;7.57;;;5.67;;
7205;SDS011;3644;53.480;10.004;2023-11-18T07:10:00;6.90;;;5.47;;
7205;SDS011;3644;53.480;10.004;2023-11-18T07:12:25;8.70;;;5.90;;
7205;SDS011;3644;53.480;10.004;2023-11-18T07:14:51;7.17;;;5.80;;
7205;SDS011;3644;53.480;10.004;2023-11-18T07:17:16;8.30;;;5.77;;
7205;SDS011;3644;53.480;10.004;2023-11-18T07:19:44;7.67;;;5.23;;
7205;SDS011;3644;53.480;10.004;2023-11-18T07:22:10;9.83;;;5.53;;
7205;SDS011;3644;53.480;10.004;2023-11-18T07:24:35;7.47;;;5.60;;
7205;SDS011;3644;53.480;10.004;2023-11-18T07:27:01;7.03;;;5.20;;
7205;SDS011;3644;53.480;10.004;2023-11-18T07:29:26;9.20;;;7.20;;
7205;SDS011;3644;53.480;10.004;2023-11-18T07:31:52;9.43;;;6.57;;
7205;SDS011;3644;53.480;10.004;2023-11-18T07:34:21;11.13;;;7.17;;
7205;SDS011;3644;53.480;10.004;2023-11-18T07:36:48;11.77;;;7.00;;
7205;SDS011;3644;53.480;10.004;2023-11-18T07:39:14;19.33;;;6.73;;
7205;SDS011;3644;53.480;10.004;2023-11-18T07:41:41;9.87;;;6.50;;
7205;SDS011;3644;53.480;10.004;2023-11-18T07:44:07;10.50;;;7.33;;
7205;SDS011;3644;53.480;10.004;2023-11-18T07:46:35;12.33;;;7.87;;
7205;SDS011;3644;53.480;10.004;2023-11-18T07:49:03;14.13;;;7.13;;
7205;SDS011;3644;53.480;10.004;2023-11-18T07:51:29;11.47;;;7.20;;
7205;SDS011;3644;53.480;10.004;2023-11-18T07:53:55;10.83;;;7.43;;
7205;SDS011;3644;53.480;10.004;2023-11-18T07:56:20;8.70;;;7.33;;
7205;SDS011;3644;53.480;10.004;2023-11-18T07:58:49;9.97;;;7.37;;
7205;SDS011;3644;53.480;10.004;2023-11-18T08:01:15;10.63;;;6.87;;
7205;SDS011;3644;53.480;10.004;2023-11-18T08:03:41;14.97;;;7.17;;
7205;SDS011;3644;53.480;10.004;2023-11-18T08:06:07;10.60;;;6.50;;
7205;SDS011;3644;53.480;10.004;2023-11-18T08:08:33;11.50;;;6.87;;
7205;SDS011;3644;53.480;10.004;2023-11-18T08:11:02;12.80;;;6.83;;
7205;SDS011;3644;53.480;10.004;2023-11-18T08:13:27;9.13;;;5.70;;
7205;SDS011;3644;53.480;10.004;2023-11-18T08:15:53;9.07;;;6.77;;
7205;SDS011;3644;53.480;10.004;2023-11-18T08:18:18;9.43;;;6.63;;
7205;SDS011;3644;53.480;10.004;2023-11-18T08:20:46;9.40;;;6.57;;
7205;SDS011;3644;53.480;10.004;2023-11-18T08:23:12;10.57;;;6.50;;
7205;SDS011;3644;53.480;10.004;2023-11-18T08:25:37;12.20;;;7.00;;
7205;SDS011;3644;53.480;10.004;2023-11-18T08:28:03;13.40;;;6.90;;
7205;SDS011;3644;53.480;10.004;2023-11-18T08:30:29;10.67;;;6.43;;
7205;SDS011;3644;53.480;10.004;2023-11-18T08:32:55;9.40;;;6.30;;
7205;SDS011;3644;53.480;10.004;2023-11-18T08:35:20;9.90;;;7.13;;
7205;SDS011;3644;53.480;10.004;2023-11-18T08:37:47;11.23;;;7.30;;
7205;SDS011;3644;53.480;10.004;2023-11-18T08:40:13;9.20;;;6.20;;
7205;SDS011;3644;53.480;10.004;2023-11-18T08:42:47;11.03;;;6.50;;
7205;SDS011;3644;53.480;10.004;2023-11-18T08:45:17;7.90;;;5.90;;
7205;SDS011;3644;53.480;10.004;2023-11-18T08:47:58;10.13;;;6.90;;
7205;SDS011;3644;53.480;10.004;2023-11-18T08:50:27;7.00;;;5.70;;
7205;SDS011;3644;53.480;10.004;2023-11-18T08:52:54;10.50;;;6.60;;
7205;SDS011;3644;53.480;10.004;2023-11-18T08:55:23;11.53;;;6.50;;
7205;SDS011;3644;53.480;10.004;2023-11-18T08:58:04;10.40;;;6.27;;
7205;SDS011;3644;53.480;10.004;2023-11-18T09:00:40;9.60;;;7.03;;
7205;SDS011;3644;53.480;10.004;2023-11-18T09:03:10;7.77;;;5.90;;
7205;SDS011;3644;53.480;10.004;2023-11-18T09:05:52;8.67;;;5.87;;
7205;SDS011;3644;53.480;10.004;2023-11-18T09:08:29;9.83;;;6.00;;
7205;SDS011;3644;53.480;10.004;2023-11-18T09:10:57;9.67;;;5.97;;
7205;SDS011;3644;53.480;10.004;2023-11-18T09:13:23;9.83;;;5.87;;
7205;SDS011;3644;53.480;10.004;2023-11-18T09:15:53;10.37;;;4.77;;
7205;SDS011;3644;53.480;10.004;2023-11-18T09:18:21;14.33;;;5.90;;
7205;SDS011;3644;53.480;10.004;2023-11-18T09:20:47;9.90;;;6.90;;
7205;SDS011;3644;53.480;10.004;2023-11-18T09:23:12;9.80;;;6.40;;
7205;SDS011;3644;53.480;10.004;2023-11-18T09:25:40;9.73;;;5.50;;
7205;SDS011;3644;53.480;10.004;2023-11-18T09:28:06;8.23;;;6.00;;
7205;SDS011;3644;53.480;10.004;2023-11-18T09:30:35;9.50;;;5.57;;
7205;SDS011;3644;53.480;10.004;2023-11-18T09:33:03;9.50;;;6.10;;
7205;SDS011;3644;53.480;10.004;2023-11-18T09:35:39;9.17;;;6.33;;
7205;SDS011;3644;53.480;10.004;2023-11-18T09:38:05;11.17;;;7.10;;
7205;SDS011;3644;53.480;10.004;2023-11-18T09:40:31;7.73;;;6.20;;
7205;SDS011;3644;53.480;10.004;2023-11-18T09:42:59;14.87;;;6.20;;
7205;SDS011;3644;53.480;10.004;2023-11-18T09:45:29;8.20;;;5.80;;
7205;SDS011;3644;53.480;10.004;2023-11-18T09:47:55;8.83;;;6.50;;
7205;SDS011;3644;53.480;10.004;2023-11-18T09:50:21;10.43;;;6.17;;
7205;SDS011;3644;53.480;10.004;2023-11-18T09:52:54;8.23;;;5.80;;
7205;SDS011;3644;53.480;10.004;2023-11-18T09:55:35;11.17;;;6.50;;
7205;SDS011;3644;53.480;10.004;2023-11-18T09:58:09;13.23;;;7.40;;
7205;SDS011;3644;53.480;10.004;2023-11-18T10:00:38;12.50;;;5.83;;
7205;SDS011;3644;53.480;10.004;2023-11-18T10:03:06;8.80;;;5.20;;
7205;SDS011;3644;53.480;10.004;2023-11-18T10:05:34;9.40;;;6.20;;
7205;SDS011;3644;53.480;10.004;2023-11-18T10:08:02;10.23;;;5.80;;
7205;SDS011;3644;53.480;10.004;2023-11-18T10:10:30;6.53;;;5.43;;
7205;SDS011;3644;53.480;10.004;2023-11-18T10:13:01;9.27;;;5.50;;
7205;SDS011;3644;53.480;10.004;2023-11-18T10:15:30;7.27;;;5.20;;
7205;SDS011;3644;53.480;10.004;2023-11-18T10:17:56;7.70;;;5.00;;
7205;SDS011;3644;53.480;10.004;2023-11-18T10:23:09;9.10;;;6.27;;
7205;SDS011;3644;53.480;10.004;2023-11-18T10:25:36;7.83;;;4.93;;
7205;SDS011;3644;53.480;10.004;2023-11-18T10:28:07;8.10;;;5.33;;
7205;SDS011;3644;53.480;10.004;2023-11-18T10:30:42;6.30;;;4.90;;
7205;SDS011;3644;53.480;10.004;2023-11-18T10:33:11;9.00;;;5.33;;
7205;SDS011;3644;53.480;10.004;2023-11-18T10:35:39;6.43;;;5.07;;
7205;SDS011;3644;53.480;10.004;2023-11-18T10:38:16;11.80;;;4.87;;
7205;SDS011;3644;53.480;10.004;2023-11-18T10:40:42;6.20;;;4.80;;
7205;SDS011;3644;53.480;10.004;2023-11-18T10:43:08;5.80;;;5.00;;
7205;SDS011;3644;53.480;10.004;2023-11-18T10:45:37;7.53;;;5.43;;
7205;SDS011;3644;53.480;10.004;2023-11-18T10:48:06;6.03;;;5.03;;
7205;SDS011;3644;53.480;10.004;2023-11-18T10:50:31;8.03;;;5.00;;
7205;SDS011;3644;53.480;10.004;2023-11-18T10:52:58;7.63;;;4.93;;
7205;SDS011;3644;53.480;10.004;2023-11-18T10:55:35;8.30;;;4.90;;
7205;SDS011;3644;53.480;10.004;2023-11-18T10:58:02;4.30;;;3.90;;
7205;SDS011;3644;53.480;10.004;2023-11-18T11:00:29;7.60;;;4.87;;
7205;SDS011;3644;53.480;10.004;2023-11-18T11:03:14;5.83;;;4.00;;
7205;SDS011;3644;53.480;10.004;2023-11-18T11:05:40;4.97;;;4.03;;
7205;SDS011;3644;53.480;10.004;2023-11-18T11:08:08;5.83;;;4.50;;
7205;SDS011;3644;53.480;10.004;2023-11-18T11:10:33;5.53;;;4.30;;
7205;SDS011;3644;53.480;10.004;2023-11-18T11:13:01;4.80;;;4.30;;
7205;SDS011;3644;53.480;10.004;2023-11-18T11:15:31;4.40;;;3.60;;
7205;SDS011;3644;53.480;10.004;2023-11-18T11:18:00;5.27;;;3.83;;
7205;SDS011;3644;53.480;10.004;2023-11-18T11:20:59;5.80;;;4.00;;
7205;SDS011;3644;53.480;10.004;2023-11-18T11:23:50;5.10;;;4.23;;
7205;SDS011;3644;53.480;10.004;2023-11-18T11:26:43;4.50;;;3.97;;
7205;SDS011;3644;53.480;10.004;2023-11-18T11:32:00;5.90;;;3.80;;
7205;SDS011;3644;53.480;10.004;2023-11-18T11:34:37;6.73;;;4.30;;
7205;SDS011;3644;53.480;10.004;2023-11-18T11:37:12;6.10;;;4.00;;
7205;SDS011;3644;53.480;10.004;2023-11-18T11:39:40;6.03;;;4.07;;
7205;SDS011;3644;53.480;10.004;2023-11-18T11:42:11;5.60;;;3.90;;
7205;SDS011;3644;53.480;10.004;2023-11-18T11:44:42;4.63;;;4.17;;
7205;SDS011;3644;53.480;10.004;2023-11-18T11:47:09;5.80;;;4.13;;
7205;SDS011;3644;53.480;10.004;2023-11-18T11:49:47;7.83;;;4.73;;
7205;SDS011;3644;53.480;10.004;2023-11-18T11:52:26;5.63;;;4.13;;
7205;SDS011;3644;53.480;10.004;2023-11-18T11:54:55;5.07;;;4.37;;
7205;SDS011;3644;53.480;10.004;2023-11-18T11:57:38;5.27;;;4.13;;
7205;SDS011;3644;53.480;10.004;2023-11-18T12:00:04;5.57;;;3.80;;
7205;SDS011;3644;53.480;10.004;2023-11-18T12:02:40;7.07;;;3.13;;
7205;SDS011;3644;53.480;10.004;2023-11-18T12:05:15;3.40;;;3.10;;
7205;SDS011;3644;53.480;10.004;2023-11-18T12:07:44;4.80;;;3.30;;
7205;SDS011;3644;53.480;10.004;2023-11-18T12:10:11;4.90;;;3.33;;
7205;SDS011;3644;53.480;10.004;2023-11-18T12:12:45;3.97;;;3.13;;
7205;SDS011;3644;53.480;10.004;2023-11-18T12:15:11;3.83;;;3.07;;
7205;SDS011;3644;53.480;10.004;2023-11-18T12:23:07;8.73;;;3.40;;
7205;SDS011;3644;53.480;10.004;2023-11-18T12:25:39;3.30;;;3.00;;
7205;SDS011;3644;53.480;10.004;2023-11-18T12:28:14;4.80;;;3.67;;
7205;SDS011;3644;53.480;10.004;2023-11-18T12:30:42;3.37;;;3.07;;
7205;SDS011;3644;53.480;10.004;2023-11-18T12:33:22;4.30;;;2.73;;
7205;SDS011;3644;53.480;10.004;2023-11-18T12:41:32;3.07;;;2.77;;
7205;SDS011;3644;53.480;10.004;2023-11-18T12:49:43;2.63;;;2.43;;
7205;SDS011;3644;53.480;10.004;2023-11-18T12:52:12;3.00;;;2.67;;
7205;SDS011;3644;53.480;10.004;2023-11-18T12:54:40;2.90;;;2.43;;
7205;SDS011;3644;53.480;10.004;2023-11-18T12:57:08;2.43;;;2.23;;
7205;SDS011;3644;53.480;10.004;2023-11-18T12:59:40;5.73;;;1.90;;
7205;SDS011;3644;53.480;10.004;2023-11-18T13:02:10;2.50;;;2.30;;
7205;SDS011;3644;53.480;10.004;2023-11-18T13:04:44;2.30;;;2.10;;
7205;SDS011;3644;53.480;10.004;2023-11-18T13:07:12;2.60;;;2.40;;
7205;SDS011;3644;53.480;10.004;2023-11-18T13:09:39;3.00;;;2.60;;
7205;SDS011;3644;53.480;10.004;2023-11-18T13:12:07;2.77;;;2.57;;
7205;SDS011;3644;53.480;10.004;2023-11-18T13:14:35;2.60;;;2.50;;
7205;SDS011;3644;53.480;10.004;2023-11-18T13:17:04;2.80;;;2.40;;
7205;SDS011;3644;53.480;10.004;2023-11-18T13:19:36;2.63;;;2.37;;
7205;SDS011;3644;53.480;10.004;2023-11-18T13:22:02;3.83;;;2.87;;
7205;SDS011;3644;53.480;10.004;2023-11-18T13:24:37;2.63;;;2.43;;
7205;SDS011;3644;53.480;10.004;2023-11-18T13:27:04;3.20;;;2.40;;
7205;SDS011;3644;53.480;10.004;2023-11-18T13:29:31;6.90;;;2.70;;
7205;SDS011;3644;53.480;10.004;2023-11-18T13:31:57;3.30;;;2.50;;
7205;SDS011;3644;53.480;10.004;2023-11-18T13:34:25;3.53;;;2.83;;
7205;SDS011;3644;53.480;10.004;2023-11-18T13:36:52;3.83;;;2.60;;
7205;SDS011;3644;53.480;10.004;2023-11-18T13:39:18;6.67;;;3.57;;
7205;SDS011;3644;53.480;10.004;2023-11-18T13:41:44;4.53;;;3.50;;
7205;SDS011;3644;53.480;10.004;2023-11-18T13:44:31;4.10;;;3.70;;
7205;SDS011;3644;53.480;10.004;2023-11-18T13:47:01;3.60;;;3.30;;
7205;SDS011;3644;53.480;10.004;2023-11-18T13:49:27;2.60;;;2.10;;
7205;SDS011;3644;53.480;10.004;2023-11-18T13:51:54;4.20;;;3.20;;
7205;SDS011;3644;53.480;10.004;2023-11-18T13:54:21;3.80;;;3.50;;
7205;SDS011;3644;53.480;10.004;2023-11-18T13:56:47;2.67;;;2.47;;
7205;SDS011;3644;53.480;10.004;2023-11-18T13:59:22;8.30;;;2.87;;
7205;SDS011;3644;53.480;10.004;2023-11-18T14:01:49;4.80;;;2.83;;
7205;SDS011;3644;53.480;10.004;2023-11-18T14:04:17;3.53;;;3.23;;
7205;SDS011;3644;53.480;10.004;2023-11-18T14:06:43;5.33;;;3.77;;
7205;SDS011;3644;53.480;10.004;2023-11-18T14:09:08;5.07;;;3.53;;
7205;SDS011;3644;53.480;10.004;2023-11-18T14:11:36;3.53;;;3.23;;
7205;SDS011;3644;53.480;10.004;2023-11-18T14:14:01;3.87;;;3.57;;
7205;SDS011;3644;53.480;10.004;2023-11-18T14:16:27;6.20;;;3.43;;
7205;SDS011;3644;53.480;10.004;2023-11-18T14:18:52;3.47;;;3.17;;
7205;SDS011;3644;53.480;10.004;2023-11-18T14:21:18;3.80;;;3.40;;
7205;SDS011;3644;53.480;10.004;2023-11-18T14:23:43;10.93;;;4.90;;
7205;SDS011;3644;53.480;10.004;2023-11-18T14:26:09;6.67;;;4.00;;
7205;SDS011;3644;53.480;10.004;2023-11-18T14:28:35;7.73;;;4.73;;
7205;SDS011;3644;53.480;10.004;2023-11-18T14:31:02;6.40;;;4.77;;
7205;SDS011;3644;53.480;10.004;2023-11-18T14:33:32;5.40;;;4.50;;
7205;SDS011;3644;53.480;10.004;2023-11-18T14:35:58;4.30;;;3.70;;
7205;SDS011;3644;53.480;10.004;2023-11-18T14:38:26;8.50;;;4.77;;
7205;SDS011;3644;53.480;10.004;2023-11-18T14:40:51;9.97;;;4.40;;
7205;SDS011;3644;53.480;10.004;2023-11-18T14:43:18;7.73;;;5.33;;
7205;SDS011;3644;53.480;10.004;2023-11-18T14:45:44;12.13;;;5.00;;
7205;SDS011;3644;53.480;10.004;2023-11-18T14:48:09;6.57;;;5.43;;
7205;SDS011;3644;53.480;10.004;2023-11-18T14:50:35;7.53;;;4.53;;
7205;SDS011;3644;53.480;10.004;2023-11-18T14:53:00;10.20;;;5.17;;
7205;SDS011;3644;53.480;10.004;2023-11-18T14:55:28;4.97;;;4.00;;
7205;SDS011;3644;53.480;10.004;2023-11-18T14:57:55;6.10;;;5.00;;
7205;SDS011;3644;53.480;10.004;2023-11-18T15:00:21;6.17;;;5.03;;
7205;SDS011;3644;53.480;10.004;2023-11-18T15:02:49;7.30;;;4.47;;
7205;SDS011;3644;53.480;10.004;2023-11-18T15:05:16;11.23;;;5.17;;
7205;SDS011;3644;53.480;10.004;2023-11-18T15:07:43;15.43;;;5.30;;
7205;SDS011;3644;53.480;10.004;2023-11-18T15:10:14;12.73;;;6.47;;
7205;SDS011;3644;53.480;10.004;2023-11-18T15:12:44;9.70;;;6.10;;
7205;SDS011;3644;53.480;10.004;2023-11-18T15:15:13;9.50;;;5.50;;
7205;SDS011;3644;53.480;10.004;2023-11-18T15:17:46;7.40;;;5.00;;
7205;SDS011;3644;53.480;10.004;2023-11-18T15:20:16;11.60;;;5.40;;
7205;SDS011;3644;53.480;10.004;2023-11-18T15:22:43;9.57;;;5.67;;
7205;SDS011;3644;53.480;10.004;2023-11-18T15:25:10;6.47;;;4.90;;
7205;SDS011;3644;53.480;10.004;2023-11-18T15:27:37;7.93;;;5.23;;
7205;SDS011;3644;53.480;10.004;2023-11-18T15:30:05;5.23;;;4.50;;